PDT5800 KPHL-KRIC
Flight info
| Callsign | PDT5800 |
|---|---|
| Flight time | 0h 43m |
| Altitude | 26000 |
| Route | OOD TEBEE HAYDO GROUT/N0303F160 T315 SHLBK/N0283F100 T315 COLIN |
| Aircraft | E145/M-SDFGIRW/S |
Departure
| Time | 2026-04-20 15:32 |
|---|---|
| Airport | Philadelphia International Airport (KPHL) |
Arrival
| Time | 2026-04-20 16:16 |
|---|---|
| Airport | Richmond International Airport (KRIC) |
| Time | Latitude | Longitude | Altitude | Speed | Heading |
|---|---|---|---|---|---|
| 2026-04-20 15:16 | 39.88190 | -75.23762 | 8 ft | 0 kts | 108° |
| 2026-04-20 15:22 | 39.88190 | -75.23761 | 8 ft | 0 kts | 108° |
| 2026-04-20 15:22 | 39.88192 | -75.23771 | 8 ft | 2 kts | 107° |
| 2026-04-20 15:23 | 39.88196 | -75.23785 | 8 ft | 0 kts | 108° |
| 2026-04-20 15:23 | 39.88197 | -75.23801 | 8 ft | 2 kts | 67° |
| 2026-04-20 15:23 | 39.88187 | -75.23816 | 8 ft | 2 kts | 20° |
| 2026-04-20 15:23 | 39.88181 | -75.23817 | 8 ft | 0 kts | 11° |
| 2026-04-20 15:27 | 39.88182 | -75.23817 | 8 ft | 0 kts | 11° |
| 2026-04-20 15:27 | 39.88200 | -75.23812 | 8 ft | 5 kts | 13° |
| 2026-04-20 15:27 | 39.88259 | -75.23794 | 8 ft | 10 kts | 21° |
| 2026-04-20 15:28 | 39.88308 | -75.23721 | 8 ft | 12 kts | 71° |
| 2026-04-20 15:28 | 39.88318 | -75.23640 | 8 ft | 8 kts | 111° |
| 2026-04-20 15:28 | 39.88265 | -75.23595 | 8 ft | 10 kts | 160° |
| 2026-04-20 15:28 | 39.88190 | -75.23559 | 8 ft | 12 kts | 159° |
| 2026-04-20 15:29 | 39.88098 | -75.23512 | 8 ft | 15 kts | 159° |
| 2026-04-20 15:29 | 39.87990 | -75.23460 | 8 ft | 17 kts | 159° |
| 2026-04-20 15:29 | 39.87866 | -75.23440 | 8 ft | 18 kts | 170° |
| 2026-04-20 15:29 | 39.87740 | -75.23379 | 8 ft | 20 kts | 160° |
| 2026-04-20 15:30 | 39.87599 | -75.23310 | 8 ft | 22 kts | 159° |
| 2026-04-20 15:30 | 39.87463 | -75.23243 | 8 ft | 12 kts | 159° |
| 2026-04-20 15:30 | 39.87432 | -75.23227 | 8 ft | 0 kts | 159° |
| 2026-04-20 15:31 | 39.87427 | -75.23225 | 8 ft | 1 kts | 159° |
| 2026-04-20 15:31 | 39.87404 | -75.23213 | 8 ft | 6 kts | 160° |
| 2026-04-20 15:31 | 39.87339 | -75.23231 | 8 ft | 13 kts | 243° |
| 2026-04-20 15:31 | 39.87329 | -75.23270 | 8 ft | 0 kts | 255° |
| 2026-04-20 15:32 | 39.87296 | -75.23437 | 8 ft | 56 kts | 257° |
| 2026-04-20 15:32 | 39.87135 | -75.24237 | 8 ft | 125 kts | 256° |
| 2026-04-20 15:32 | 39.86872 | -75.25536 | 122 ft | 160 kts | 259° |
| 2026-04-20 15:32 | 39.86592 | -75.26932 | 791 ft | 163 kts | 258° |
| 2026-04-20 15:33 | 39.85991 | -75.28214 | 1436 ft | 178 kts | 227° |
| 2026-04-20 15:33 | 39.84904 | -75.29308 | 1797 ft | 213 kts | 220° |
| 2026-04-20 15:33 | 39.83699 | -75.30457 | 2481 ft | 231 kts | 219° |
| 2026-04-20 15:33 | 39.82329 | -75.31763 | 3056 ft | 252 kts | 220° |
| 2026-04-20 15:34 | 39.80920 | -75.33098 | 3989 ft | 251 kts | 219° |
| 2026-04-20 15:34 | 39.79495 | -75.34328 | 4858 ft | 253 kts | 208° |
| 2026-04-20 15:34 | 39.77754 | -75.34666 | 5640 ft | 263 kts | 175° |
| 2026-04-20 15:34 | 39.75989 | -75.33962 | 6461 ft | 266 kts | 167° |
| 2026-04-20 15:35 | 39.74216 | -75.33379 | 7230 ft | 267 kts | 171° |
| 2026-04-20 15:35 | 39.72398 | -75.32838 | 7984 ft | 269 kts | 172° |
| 2026-04-20 15:35 | 39.70591 | -75.32314 | 8788 ft | 269 kts | 172° |
| 2026-04-20 15:35 | 39.68749 | -75.31784 | 9568 ft | 271 kts | 173° |
| 2026-04-20 15:36 | 39.66900 | -75.31252 | 10301 ft | 273 kts | 173° |
| 2026-04-20 15:36 | 39.65023 | -75.30715 | 10811 ft | 284 kts | 172° |
| 2026-04-20 15:36 | 39.63062 | -75.30410 | 11259 ft | 288 kts | 189° |
| 2026-04-20 15:36 | 39.61051 | -75.30771 | 11719 ft | 296 kts | 193° |
| 2026-04-20 15:37 | 39.58974 | -75.31145 | 12196 ft | 305 kts | 193° |
| 2026-04-20 15:37 | 39.56846 | -75.31531 | 12792 ft | 310 kts | 193° |
| 2026-04-20 15:37 | 39.54714 | -75.31917 | 13403 ft | 313 kts | 193° |
| 2026-04-20 15:37 | 39.52531 | -75.32311 | 13991 ft | 317 kts | 194° |
| 2026-04-20 15:38 | 39.50352 | -75.32705 | 14582 ft | 320 kts | 194° |
| 2026-04-20 15:38 | 39.48146 | -75.33105 | 15192 ft | 322 kts | 194° |
| 2026-04-20 15:38 | 39.45923 | -75.33506 | 15791 ft | 323 kts | 195° |
| 2026-04-20 15:38 | 39.43683 | -75.33912 | 16363 ft | 326 kts | 195° |
| 2026-04-20 15:39 | 39.41452 | -75.34315 | 16951 ft | 327 kts | 196° |
| 2026-04-20 15:39 | 39.39202 | -75.34721 | 17480 ft | 329 kts | 197° |
| 2026-04-20 15:39 | 39.36938 | -75.35129 | 18024 ft | 330 kts | 197° |
| 2026-04-20 15:39 | 39.34669 | -75.35536 | 18670 ft | 327 kts | 198° |
| 2026-04-20 15:40 | 39.32429 | -75.35940 | 19334 ft | 324 kts | 198° |
| 2026-04-20 15:40 | 39.30203 | -75.36340 | 19988 ft | 322 kts | 199° |
| 2026-04-20 15:40 | 39.27994 | -75.36739 | 20583 ft | 320 kts | 199° |
| 2026-04-20 15:40 | 39.25816 | -75.37130 | 21178 ft | 318 kts | 199° |
| 2026-04-20 15:41 | 39.23623 | -75.37524 | 21844 ft | 315 kts | 199° |
| 2026-04-20 15:41 | 39.21469 | -75.37910 | 22441 ft | 312 kts | 200° |
| 2026-04-20 15:41 | 39.19336 | -75.38293 | 23065 ft | 308 kts | 200° |
| 2026-04-20 15:41 | 39.17248 | -75.38667 | 23650 ft | 305 kts | 201° |
| 2026-04-20 15:42 | 39.15137 | -75.39048 | 24171 ft | 305 kts | 200° |
| 2026-04-20 15:42 | 39.13042 | -75.39422 | 24742 ft | 303 kts | 201° |
| 2026-04-20 15:42 | 39.10958 | -75.39796 | 25255 ft | 302 kts | 201° |
| 2026-04-20 15:42 | 39.08903 | -75.40162 | 25845 ft | 298 kts | 201° |
| 2026-04-20 15:43 | 39.06806 | -75.40543 | 25963 ft | 310 kts | 201° |
| 2026-04-20 15:43 | 39.04678 | -75.41050 | 25976 ft | 314 kts | 208° |
| 2026-04-20 15:43 | 39.02685 | -75.42097 | 25978 ft | 306 kts | 220° |
| 2026-04-20 15:43 | 39.00934 | -75.43626 | 25569 ft | 318 kts | 227° |
| 2026-04-20 15:44 | 38.99351 | -75.45547 | 24786 ft | 315 kts | 234° |
| 2026-04-20 15:44 | 38.97885 | -75.47611 | 24659 ft | 309 kts | 232° |
| 2026-04-20 15:44 | 38.96399 | -75.49384 | 25639 ft | 274 kts | 235° |
| 2026-04-20 15:44 | 38.95305 | -75.51259 | 26180 ft | 260 kts | 246° |
| 2026-04-20 15:45 | 38.94619 | -75.53410 | 26222 ft | 264 kts | 257° |
| 2026-04-20 15:45 | 38.94128 | -75.55695 | 26218 ft | 275 kts | 252° |
| 2026-04-20 15:45 | 38.93355 | -75.58002 | 26222 ft | 286 kts | 248° |
| 2026-04-20 15:45 | 38.92426 | -75.60327 | 26222 ft | 296 kts | 246° |
| 2026-04-20 15:46 | 38.91428 | -75.62650 | 26223 ft | 304 kts | 245° |
| 2026-04-20 15:46 | 38.90362 | -75.65045 | 26222 ft | 312 kts | 244° |
| 2026-04-20 15:46 | 38.89256 | -75.67490 | 26243 ft | 320 kts | 244° |
| 2026-04-20 15:46 | 38.88118 | -75.69988 | 26241 ft | 327 kts | 244° |
| 2026-04-20 15:47 | 38.86961 | -75.72517 | 26242 ft | 334 kts | 244° |
| 2026-04-20 15:47 | 38.85770 | -75.75118 | 26240 ft | 340 kts | 244° |
| 2026-04-20 15:47 | 38.84575 | -75.77722 | 26240 ft | 346 kts | 244° |
| 2026-04-20 15:47 | 38.83344 | -75.80402 | 26238 ft | 351 kts | 243° |
| 2026-04-20 15:48 | 38.82093 | -75.83121 | 26237 ft | 355 kts | 244° |
| 2026-04-20 15:48 | 38.80839 | -75.85847 | 26240 ft | 359 kts | 244° |
| 2026-04-20 15:48 | 38.79564 | -75.88617 | 26238 ft | 363 kts | 243° |
| 2026-04-20 15:48 | 38.78274 | -75.91415 | 26237 ft | 366 kts | 243° |
| 2026-04-20 15:49 | 38.76924 | -75.94231 | 26232 ft | 371 kts | 240° |
| 2026-04-20 15:49 | 38.75250 | -75.96762 | 26232 ft | 381 kts | 231° |
| 2026-04-20 15:49 | 38.73178 | -75.98945 | 26221 ft | 392 kts | 223° |
| 2026-04-20 15:49 | 38.70921 | -76.00949 | 26212 ft | 393 kts | 223° |
| 2026-04-20 15:50 | 38.68715 | -76.02979 | 26210 ft | 395 kts | 223° |
| 2026-04-20 15:50 | 38.66475 | -76.05059 | 26209 ft | 395 kts | 223° |
| 2026-04-20 15:50 | 38.64283 | -76.07100 | 26205 ft | 392 kts | 224° |
| 2026-04-20 15:50 | 38.62143 | -76.09232 | 26201 ft | 384 kts | 229° |
| 2026-04-20 15:51 | 38.60222 | -76.11588 | 26220 ft | 381 kts | 230° |
| 2026-04-20 15:51 | 38.58325 | -76.13903 | 26223 ft | 380 kts | 231° |
| 2026-04-20 15:51 | 38.56401 | -76.16246 | 26225 ft | 380 kts | 230° |
| 2026-04-20 15:51 | 38.54496 | -76.18562 | 26222 ft | 379 kts | 230° |
| 2026-04-20 15:52 | 38.52603 | -76.20861 | 26221 ft | 378 kts | 230° |
| 2026-04-20 15:52 | 38.50689 | -76.23181 | 26224 ft | 376 kts | 231° |
| 2026-04-20 15:52 | 38.48826 | -76.25440 | 25907 ft | 367 kts | 230° |
| 2026-04-20 15:53 | 38.45302 | -76.29703 | 24838 ft | 334 kts | 231° |
| 2026-04-20 15:53 | 38.43645 | -76.31709 | 24287 ft | 321 kts | 231° |
| 2026-04-20 15:53 | 38.42069 | -76.33614 | 23745 ft | 310 kts | 231° |
| 2026-04-20 15:53 | 38.40527 | -76.35477 | 23193 ft | 301 kts | 231° |
| 2026-04-20 15:54 | 38.39010 | -76.37312 | 22648 ft | 301 kts | 231° |
| 2026-04-20 15:54 | 38.37505 | -76.39130 | 22160 ft | 303 kts | 231° |
| 2026-04-20 15:54 | 38.35975 | -76.40974 | 21756 ft | 302 kts | 232° |
| 2026-04-20 15:54 | 38.34445 | -76.42820 | 21349 ft | 306 kts | 231° |
| 2026-04-20 15:55 | 38.32783 | -76.44591 | 20853 ft | 317 kts | 226° |
| 2026-04-20 15:55 | 38.31003 | -76.46292 | 20316 ft | 319 kts | 226° |
| 2026-04-20 15:55 | 38.29277 | -76.47944 | 19789 ft | 310 kts | 226° |
| 2026-04-20 15:55 | 38.27570 | -76.49580 | 19237 ft | 303 kts | 227° |
| 2026-04-20 15:56 | 38.25894 | -76.51188 | 18748 ft | 302 kts | 227° |
| 2026-04-20 15:56 | 38.24222 | -76.52791 | 18274 ft | 300 kts | 227° |
| 2026-04-20 15:56 | 38.22564 | -76.54379 | 17800 ft | 297 kts | 227° |
| 2026-04-20 15:56 | 38.20933 | -76.55939 | 17270 ft | 291 kts | 227° |
| 2026-04-20 15:57 | 38.19345 | -76.57459 | 16681 ft | 288 kts | 227° |
| 2026-04-20 15:57 | 38.17753 | -76.58981 | 16074 ft | 285 kts | 227° |
| 2026-04-20 15:57 | 38.16172 | -76.60491 | 15516 ft | 281 kts | 227° |
| 2026-04-20 15:57 | 38.14616 | -76.61978 | 14989 ft | 277 kts | 227° |
| 2026-04-20 15:58 | 38.13089 | -76.63435 | 14476 ft | 274 kts | 227° |
| 2026-04-20 15:58 | 38.11567 | -76.64887 | 13959 ft | 272 kts | 227° |
| 2026-04-20 15:58 | 38.10070 | -76.66306 | 13485 ft | 271 kts | 224° |
| 2026-04-20 15:58 | 38.08460 | -76.67580 | 12971 ft | 273 kts | 220° |
| 2026-04-20 15:59 | 38.06840 | -76.68830 | 12451 ft | 272 kts | 220° |
| 2026-04-20 15:59 | 38.05085 | -76.69807 | 11928 ft | 280 kts | 206° |
| 2026-04-20 15:59 | 38.03393 | -76.70823 | 11439 ft | 272 kts | 214° |
| 2026-04-20 15:59 | 38.01643 | -76.71794 | 10944 ft | 273 kts | 211° |
| 2026-04-20 16:00 | 37.99898 | -76.72758 | 10445 ft | 273 kts | 211° |
| 2026-04-20 16:00 | 37.98172 | -76.73737 | 9918 ft | 272 kts | 211° |
| 2026-04-20 16:00 | 37.96494 | -76.74709 | 9339 ft | 263 kts | 211° |
| 2026-04-20 16:00 | 37.94862 | -76.75655 | 8878 ft | 255 kts | 211° |
| 2026-04-20 16:01 | 37.93240 | -76.76607 | 8369 ft | 258 kts | 211° |
| 2026-04-20 16:01 | 37.91611 | -76.77580 | 7878 ft | 259 kts | 211° |
| 2026-04-20 16:01 | 37.90041 | -76.78623 | 7420 ft | 257 kts | 214° |
| 2026-04-20 16:01 | 37.88470 | -76.79733 | 6951 ft | 257 kts | 214° |
| 2026-04-20 16:02 | 37.86904 | -76.80846 | 6490 ft | 257 kts | 214° |
| 2026-04-20 16:02 | 37.85377 | -76.81943 | 5968 ft | 250 kts | 214° |
| 2026-04-20 16:02 | 37.83897 | -76.82992 | 5500 ft | 237 kts | 214° |
| 2026-04-20 16:02 | 37.82453 | -76.84008 | 5089 ft | 238 kts | 214° |
| 2026-04-20 16:03 | 37.81009 | -76.85025 | 4643 ft | 241 kts | 214° |
| 2026-04-20 16:03 | 37.79534 | -76.86071 | 4195 ft | 245 kts | 214° |
| 2026-04-20 16:03 | 37.78065 | -76.87109 | 3891 ft | 241 kts | 214° |
| 2026-04-20 16:03 | 37.76635 | -76.88115 | 3576 ft | 227 kts | 214° |
| 2026-04-20 16:04 | 37.75289 | -76.89047 | 3305 ft | 213 kts | 214° |
| 2026-04-20 16:04 | 37.74014 | -76.89928 | 3090 ft | 209 kts | 214° |
| 2026-04-20 16:04 | 37.72752 | -76.90790 | 2872 ft | 201 kts | 214° |
| 2026-04-20 16:04 | 37.71536 | -76.91618 | 2631 ft | 195 kts | 214° |
| 2026-04-20 16:05 | 37.70365 | -76.92403 | 2492 ft | 188 kts | 214° |
| 2026-04-20 16:05 | 37.69201 | -76.93185 | 2358 ft | 187 kts | 214° |
| 2026-04-20 16:05 | 37.68088 | -76.93926 | 2217 ft | 178 kts | 214° |
| 2026-04-20 16:05 | 37.67026 | -76.94666 | 2084 ft | 171 kts | 216° |
| 2026-04-20 16:06 | 37.65983 | -76.95399 | 1989 ft | 169 kts | 216° |
| 2026-04-20 16:06 | 37.64958 | -76.96133 | 1937 ft | 171 kts | 217° |
| 2026-04-20 16:06 | 37.63920 | -76.96869 | 1872 ft | 169 kts | 216° |
| 2026-04-20 16:06 | 37.62885 | -76.97611 | 1817 ft | 172 kts | 217° |
| 2026-04-20 16:07 | 37.61829 | -76.98371 | 1783 ft | 178 kts | 217° |
| 2026-04-20 16:07 | 37.60734 | -76.99168 | 1744 ft | 184 kts | 216° |
| 2026-04-20 16:07 | 37.59613 | -76.99999 | 1706 ft | 189 kts | 216° |
| 2026-04-20 16:07 | 37.58476 | -77.00851 | 1661 ft | 188 kts | 216° |
| 2026-04-20 16:08 | 37.57378 | -77.01668 | 1621 ft | 182 kts | 217° |
| 2026-04-20 16:08 | 37.56292 | -77.02469 | 1611 ft | 176 kts | 216° |
| 2026-04-20 16:08 | 37.55325 | -77.03353 | 1596 ft | 166 kts | 228° |
| 2026-04-20 16:08 | 37.54485 | -77.04318 | 1584 ft | 162 kts | 229° |
| 2026-04-20 16:09 | 37.53633 | -77.05289 | 1592 ft | 167 kts | 229° |
| 2026-04-20 16:09 | 37.52775 | -77.06274 | 1585 ft | 164 kts | 228° |
| 2026-04-20 16:09 | 37.51935 | -77.07233 | 1579 ft | 164 kts | 229° |
| 2026-04-20 16:09 | 37.51084 | -77.08204 | 1581 ft | 163 kts | 228° |
| 2026-04-20 16:10 | 37.50248 | -77.09158 | 1582 ft | 165 kts | 229° |
| 2026-04-20 16:10 | 37.49382 | -77.10143 | 1593 ft | 169 kts | 228° |
| 2026-04-20 16:10 | 37.48509 | -77.11153 | 1606 ft | 168 kts | 228° |
| 2026-04-20 16:10 | 37.47647 | -77.12148 | 1628 ft | 168 kts | 229° |
| 2026-04-20 16:11 | 37.46814 | -77.13203 | 1577 ft | 171 kts | 235° |
| 2026-04-20 16:11 | 37.46059 | -77.14360 | 1534 ft | 170 kts | 237° |
| 2026-04-20 16:11 | 37.45359 | -77.15426 | 1482 ft | 150 kts | 236° |
| 2026-04-20 16:11 | 37.44688 | -77.16418 | 1432 ft | 144 kts | 236° |
| 2026-04-20 16:12 | 37.44080 | -77.17369 | 1359 ft | 135 kts | 247° |
| 2026-04-20 16:12 | 37.43890 | -77.18452 | 1306 ft | 124 kts | 270° |
| 2026-04-20 16:12 | 37.43852 | -77.19518 | 1260 ft | 119 kts | 274° |
| 2026-04-20 16:12 | 37.43873 | -77.20576 | 1268 ft | 122 kts | 276° |
| 2026-04-20 16:13 | 37.43883 | -77.21653 | 1283 ft | 124 kts | 274° |
| 2026-04-20 16:13 | 37.43892 | -77.22754 | 1281 ft | 126 kts | 274° |
| 2026-04-20 16:13 | 37.43917 | -77.23863 | 1265 ft | 127 kts | 274° |
| 2026-04-20 16:13 | 37.44020 | -77.24963 | 1227 ft | 127 kts | 290° |
| 2026-04-20 16:14 | 37.44506 | -77.25918 | 1174 ft | 130 kts | 307° |
| 2026-04-20 16:14 | 37.45112 | -77.26786 | 1087 ft | 134 kts | 311° |
| 2026-04-20 16:14 | 37.45796 | -77.27554 | 1020 ft | 130 kts | 321° |
| 2026-04-20 16:14 | 37.46520 | -77.28214 | 909 ft | 127 kts | 323° |
| 2026-04-20 16:15 | 37.47252 | -77.28814 | 771 ft | 126 kts | 324° |
| 2026-04-20 16:15 | 37.48010 | -77.29424 | 570 ft | 130 kts | 323° |
| 2026-04-20 16:15 | 37.48763 | -77.30027 | 430 ft | 127 kts | 326° |
| 2026-04-20 16:15 | 37.49511 | -77.30636 | 221 ft | 128 kts | 327° |
| 2026-04-20 16:16 | 37.50229 | -77.31213 | 161 ft | 109 kts | 327° |
| 2026-04-20 16:16 | 37.50701 | -77.31587 | 161 ft | 46 kts | 327° |
| 2026-04-20 16:16 | 37.50850 | -77.31805 | 161 ft | 25 kts | 296° |
| 2026-04-20 16:16 | 37.50897 | -77.31948 | 162 ft | 12 kts | 291° |
| 2026-04-20 16:17 | 37.50925 | -77.32057 | 163 ft | 13 kts | 285° |
| 2026-04-20 16:17 | 37.50947 | -77.32181 | 164 ft | 14 kts | 279° |
| 2026-04-20 16:17 | 37.50961 | -77.32316 | 164 ft | 16 kts | 278° |
| 2026-04-20 16:17 | 37.50976 | -77.32469 | 164 ft | 18 kts | 277° |
| 2026-04-20 16:18 | 37.50990 | -77.32627 | 164 ft | 13 kts | 270° |
| 2026-04-20 16:18 | 37.50970 | -77.32754 | 164 ft | 15 kts | 257° |
| 2026-04-20 16:18 | 37.50966 | -77.32777 | 164 ft | 0 kts | 258° |
| 2026-04-20 16:18 | 37.50964 | -77.32788 | 164 ft | 2 kts | 259° |
| 2026-04-20 16:19 | 37.50963 | -77.32817 | 164 ft | 4 kts | 283° |
| 2026-04-20 16:19 | 37.51000 | -77.32857 | 164 ft | 9 kts | 355° |
| 2026-04-20 16:19 | 37.51071 | -77.32840 | 164 ft | 11 kts | 6° |
| 2026-04-20 16:19 | 37.51114 | -77.32916 | 164 ft | 12 kts | 283° |
| 2026-04-20 16:20 | 37.51136 | -77.33033 | 164 ft | 14 kts | 283° |
| 2026-04-20 16:20 | 37.51109 | -77.33109 | 164 ft | 9 kts | 204° |
| 2026-04-20 16:20 | 37.51045 | -77.33128 | 164 ft | 8 kts | 178° |
| 2026-04-20 16:20 | 37.50986 | -77.33106 | 164 ft | 8 kts | 160° |
| 2026-04-20 16:21 | 37.50954 | -77.33092 | 164 ft | 2 kts | 161° |
| 2026-04-20 16:21 | 37.50947 | -77.33089 | 164 ft | 0 kts | 161° |